sensor_id;sensor_type;location;lat;lon;timestamp;P1;durP1;ratioP1;P2;durP2;ratioP2
5791;SDS011;2922;53.482;10.006;2024-03-23T00:53:05;23.40;;;4.80;;
5791;SDS011;2922;53.482;10.006;2024-03-23T00:55:31;33.33;;;6.20;;
5791;SDS011;2922;53.482;10.006;2024-03-23T00:57:57;26.50;;;3.97;;
5791;SDS011;2922;53.482;10.006;2024-03-23T01:00:22;22.37;;;3.17;;
5791;SDS011;2922;53.482;10.006;2024-03-23T01:02:48;19.60;;;2.60;;
5791;SDS011;2922;53.482;10.006;2024-03-23T01:05:13;22.30;;;4.27;;
5791;SDS011;2922;53.482;10.006;2024-03-23T01:07:39;29.80;;;4.23;;
5791;SDS011;2922;53.482;10.006;2024-03-23T01:10:05;21.43;;;3.40;;
5791;SDS011;2922;53.482;10.006;2024-03-23T01:12:30;24.60;;;2.97;;
5791;SDS011;2922;53.482;10.006;2024-03-23T01:14:56;33.90;;;4.53;;
5791;SDS011;2922;53.482;10.006;2024-03-23T01:17:21;18.73;;;3.40;;
5791;SDS011;2922;53.482;10.006;2024-03-23T01:19:47;42.20;;;5.20;;
5791;SDS011;2922;53.482;10.006;2024-03-23T01:22:12;21.70;;;3.90;;
5791;SDS011;2922;53.482;10.006;2024-03-23T01:24:38;20.83;;;2.93;;
5791;SDS011;2922;53.482;10.006;2024-03-23T01:27:03;21.27;;;3.53;;
5791;SDS011;2922;53.482;10.006;2024-03-23T01:29:29;24.77;;;3.27;;
5791;SDS011;2922;53.482;10.006;2024-03-23T01:31:55;29.03;;;4.00;;
5791;SDS011;2922;53.482;10.006;2024-03-23T01:34:21;25.60;;;4.57;;
5791;SDS011;2922;53.482;10.006;2024-03-23T01:36:46;31.63;;;4.50;;
5791;SDS011;2922;53.482;10.006;2024-03-23T01:39:12;32.50;;;4.07;;
5791;SDS011;2922;53.482;10.006;2024-03-23T01:41:39;20.50;;;3.67;;
5791;SDS011;2922;53.482;10.006;2024-03-23T01:44:07;17.47;;;2.83;;
5791;SDS011;2922;53.482;10.006;2024-03-23T01:46:33;22.20;;;3.67;;
5791;SDS011;2922;53.482;10.006;2024-03-23T01:49:07;20.77;;;3.37;;
5791;SDS011;2922;53.482;10.006;2024-03-23T01:51:34;27.20;;;4.00;;
5791;SDS011;2922;53.482;10.006;2024-03-23T01:54:01;23.13;;;3.40;;
5791;SDS011;2922;53.482;10.006;2024-03-23T01:56:28;18.73;;;3.50;;
5791;SDS011;2922;53.482;10.006;2024-03-23T01:59:00;22.13;;;3.00;;
5791;SDS011;2922;53.482;10.006;2024-03-23T02:01:28;23.40;;;3.23;;
5791;SDS011;2922;53.482;10.006;2024-03-23T02:03:55;15.77;;;3.50;;
5791;SDS011;2922;53.482;10.006;2024-03-23T02:06:20;20.27;;;3.23;;
5791;SDS011;2922;53.482;10.006;2024-03-23T02:08:47;23.13;;;3.40;;
5791;SDS011;2922;53.482;10.006;2024-03-23T02:11:13;31.83;;;5.13;;
5791;SDS011;2922;53.482;10.006;2024-03-23T02:13:38;20.97;;;3.43;;
5791;SDS011;2922;53.482;10.006;2024-03-23T02:16:04;24.00;;;4.10;;
5791;SDS011;2922;53.482;10.006;2024-03-23T02:18:30;31.37;;;3.60;;
5791;SDS011;2922;53.482;10.006;2024-03-23T02:20:56;21.53;;;3.73;;
5791;SDS011;2922;53.482;10.006;2024-03-23T02:23:22;19.30;;;4.20;;
5791;SDS011;2922;53.482;10.006;2024-03-23T02:25:49;20.73;;;3.20;;
5791;SDS011;2922;53.482;10.006;2024-03-23T02:28:21;25.30;;;3.47;;
5791;SDS011;2922;53.482;10.006;2024-03-23T02:30:48;17.77;;;4.00;;
5791;SDS011;2922;53.482;10.006;2024-03-23T02:33:14;15.87;;;3.03;;
5791;SDS011;2922;53.482;10.006;2024-03-23T02:35:39;18.40;;;3.20;;
5791;SDS011;2922;53.482;10.006;2024-03-23T02:38:05;19.60;;;5.70;;
5791;SDS011;2922;53.482;10.006;2024-03-23T02:40:30;19.77;;;4.17;;
5791;SDS011;2922;53.482;10.006;2024-03-23T02:42:56;13.60;;;2.77;;
5791;SDS011;2922;53.482;10.006;2024-03-23T02:45:21;17.83;;;3.10;;
5791;SDS011;2922;53.482;10.006;2024-03-23T02:47:47;20.57;;;3.43;;
5791;SDS011;2922;53.482;10.006;2024-03-23T02:50:16;20.83;;;3.17;;
5791;SDS011;2922;53.482;10.006;2024-03-23T02:52:43;28.60;;;3.60;;
5791;SDS011;2922;53.482;10.006;2024-03-23T02:55:08;29.93;;;3.10;;
5791;SDS011;2922;53.482;10.006;2024-03-23T02:57:34;21.70;;;2.60;;
5791;SDS011;2922;53.482;10.006;2024-03-23T03:00:00;35.77;;;3.33;;
5791;SDS011;2922;53.482;10.006;2024-03-23T03:02:25;18.73;;;2.80;;
5791;SDS011;2922;53.482;10.006;2024-03-23T03:04:51;22.93;;;5.00;;
5791;SDS011;2922;53.482;10.006;2024-03-23T03:07:16;20.10;;;4.00;;
5791;SDS011;2922;53.482;10.006;2024-03-23T03:09:42;15.53;;;3.00;;
5791;SDS011;2922;53.482;10.006;2024-03-23T03:12:07;23.50;;;4.00;;
5791;SDS011;2922;53.482;10.006;2024-03-23T03:14:33;26.77;;;3.37;;
5791;SDS011;2922;53.482;10.006;2024-03-23T03:16:59;33.23;;;3.47;;
5791;SDS011;2922;53.482;10.006;2024-03-23T03:19:25;24.03;;;3.23;;
5791;SDS011;2922;53.482;10.006;2024-03-23T03:21:51;23.33;;;4.23;;
5791;SDS011;2922;53.482;10.006;2024-03-23T03:24:16;18.90;;;3.70;;
5791;SDS011;2922;53.482;10.006;2024-03-23T03:26:42;17.47;;;3.43;;
5791;SDS011;2922;53.482;10.006;2024-03-23T03:29:08;17.27;;;2.80;;
5791;SDS011;2922;53.482;10.006;2024-03-23T03:31:34;24.87;;;3.47;;
5791;SDS011;2922;53.482;10.006;2024-03-23T03:33:59;33.70;;;4.00;;
5791;SDS011;2922;53.482;10.006;2024-03-23T03:36:25;16.50;;;2.77;;
5791;SDS011;2922;53.482;10.006;2024-03-23T03:38:50;23.40;;;3.70;;
5791;SDS011;2922;53.482;10.006;2024-03-23T03:41:16;23.67;;;3.23;;
5791;SDS011;2922;53.482;10.006;2024-03-23T03:43:42;22.63;;;3.60;;
5791;SDS011;2922;53.482;10.006;2024-03-23T03:46:08;18.93;;;4.53;;
5791;SDS011;2922;53.482;10.006;2024-03-23T03:48:33;19.50;;;3.17;;
5791;SDS011;2922;53.482;10.006;2024-03-23T03:50:59;15.83;;;4.07;;
5791;SDS011;2922;53.482;10.006;2024-03-23T03:53:25;22.27;;;3.40;;
5791;SDS011;2922;53.482;10.006;2024-03-23T03:55:51;26.17;;;3.67;;
5791;SDS011;2922;53.482;10.006;2024-03-23T03:58:17;19.07;;;3.33;;
5791;SDS011;2922;53.482;10.006;2024-03-23T04:00:42;18.40;;;3.10;;
5791;SDS011;2922;53.482;10.006;2024-03-23T04:03:08;21.13;;;3.40;;
5791;SDS011;2922;53.482;10.006;2024-03-23T04:05:33;31.20;;;3.07;;
5791;SDS011;2922;53.482;10.006;2024-03-23T04:07:59;19.60;;;2.97;;
5791;SDS011;2922;53.482;10.006;2024-03-23T04:10:24;22.47;;;2.53;;
5791;SDS011;2922;53.482;10.006;2024-03-23T04:12:50;17.63;;;3.03;;
5791;SDS011;2922;53.482;10.006;2024-03-23T04:15:15;22.23;;;2.93;;
5791;SDS011;2922;53.482;10.006;2024-03-23T04:17:41;19.47;;;4.67;;
5791;SDS011;2922;53.482;10.006;2024-03-23T04:20:08;20.67;;;3.03;;
5791;SDS011;2922;53.482;10.006;2024-03-23T04:22:36;22.73;;;4.23;;
5791;SDS011;2922;53.482;10.006;2024-03-23T04:25:02;16.23;;;2.67;;
5791;SDS011;2922;53.482;10.006;2024-03-23T04:27:31;19.10;;;2.90;;
5791;SDS011;2922;53.482;10.006;2024-03-23T04:29:57;17.83;;;3.30;;
5791;SDS011;2922;53.482;10.006;2024-03-23T04:32:23;17.93;;;2.60;;
5791;SDS011;2922;53.482;10.006;2024-03-23T04:34:48;16.83;;;3.80;;
5791;SDS011;2922;53.482;10.006;2024-03-23T04:37:14;23.03;;;3.13;;
5791;SDS011;2922;53.482;10.006;2024-03-23T04:39:41;18.53;;;2.17;;
5791;SDS011;2922;53.482;10.006;2024-03-23T04:42:07;17.83;;;3.27;;
5791;SDS011;2922;53.482;10.006;2024-03-23T04:44:32;15.03;;;2.47;;
5791;SDS011;2922;53.482;10.006;2024-03-23T04:46:58;20.13;;;2.80;;
5791;SDS011;2922;53.482;10.006;2024-03-23T04:49:23;25.60;;;3.00;;
5791;SDS011;2922;53.482;10.006;2024-03-23T04:51:49;23.77;;;2.57;;
5791;SDS011;2922;53.482;10.006;2024-03-23T04:54:14;18.70;;;3.00;;
5791;SDS011;2922;53.482;10.006;2024-03-23T04:56:40;14.20;;;2.60;;
5791;SDS011;2922;53.482;10.006;2024-03-23T04:59:06;17.93;;;3.70;;
5791;SDS011;2922;53.482;10.006;2024-03-23T05:01:32;20.20;;;2.90;;
5791;SDS011;2922;53.482;10.006;2024-03-23T05:03:57;19.80;;;2.50;;
5791;SDS011;2922;53.482;10.006;2024-03-23T05:06:23;29.33;;;3.20;;
5791;SDS011;2922;53.482;10.006;2024-03-23T05:08:50;16.20;;;2.77;;
5791;SDS011;2922;53.482;10.006;2024-03-23T05:11:16;23.97;;;3.87;;
5791;SDS011;2922;53.482;10.006;2024-03-23T05:13:42;28.23;;;3.30;;
5791;SDS011;2922;53.482;10.006;2024-03-23T05:16:07;21.83;;;4.50;;
5791;SDS011;2922;53.482;10.006;2024-03-23T05:18:33;23.70;;;3.50;;
5791;SDS011;2922;53.482;10.006;2024-03-23T05:20:59;22.17;;;2.67;;
5791;SDS011;2922;53.482;10.006;2024-03-23T05:23:25;16.60;;;2.77;;
5791;SDS011;2922;53.482;10.006;2024-03-23T05:25:51;15.40;;;2.80;;
5791;SDS011;2922;53.482;10.006;2024-03-23T05:28:18;52.60;;;4.57;;
5791;SDS011;2922;53.482;10.006;2024-03-23T05:30:43;19.33;;;2.70;;
5791;SDS011;2922;53.482;10.006;2024-03-23T05:33:14;19.47;;;3.13;;
5791;SDS011;2922;53.482;10.006;2024-03-23T05:35:40;14.73;;;3.40;;
5791;SDS011;2922;53.482;10.006;2024-03-23T05:38:05;20.83;;;3.67;;
5791;SDS011;2922;53.482;10.006;2024-03-23T05:40:31;22.83;;;3.90;;
5791;SDS011;2922;53.482;10.006;2024-03-23T05:42:56;19.43;;;2.80;;
5791;SDS011;2922;53.482;10.006;2024-03-23T05:45:22;16.23;;;2.30;;
5791;SDS011;2922;53.482;10.006;2024-03-23T05:47:48;21.30;;;3.27;;
5791;SDS011;2922;53.482;10.006;2024-03-23T05:50:14;20.93;;;3.10;;
5791;SDS011;2922;53.482;10.006;2024-03-23T05:52:39;18.47;;;3.17;;
5791;SDS011;2922;53.482;10.006;2024-03-23T05:55:05;21.17;;;2.40;;
5791;SDS011;2922;53.482;10.006;2024-03-23T05:57:31;23.23;;;2.93;;
5791;SDS011;2922;53.482;10.006;2024-03-23T05:59:57;15.83;;;2.73;;
5791;SDS011;2922;53.482;10.006;2024-03-23T06:02:22;15.33;;;3.30;;
5791;SDS011;2922;53.482;10.006;2024-03-23T06:04:49;16.20;;;3.23;;
5791;SDS011;2922;53.482;10.006;2024-03-23T06:07:14;29.40;;;4.27;;
5791;SDS011;2922;53.482;10.006;2024-03-23T06:09:40;23.43;;;3.47;;
5791;SDS011;2922;53.482;10.006;2024-03-23T06:12:07;12.47;;;2.70;;
5791;SDS011;2922;53.482;10.006;2024-03-23T06:14:32;11.07;;;2.10;;
5791;SDS011;2922;53.482;10.006;2024-03-23T06:16:59;17.17;;;3.20;;
5791;SDS011;2922;53.482;10.006;2024-03-23T06:19:25;21.17;;;4.10;;
5791;SDS011;2922;53.482;10.006;2024-03-23T06:21:54;18.43;;;2.20;;
5791;SDS011;2922;53.482;10.006;2024-03-23T06:24:22;24.20;;;2.97;;
5791;SDS011;2922;53.482;10.006;2024-03-23T06:26:49;14.83;;;3.73;;
5791;SDS011;2922;53.482;10.006;2024-03-23T06:29:16;23.20;;;3.33;;
5791;SDS011;2922;53.482;10.006;2024-03-23T06:31:41;22.70;;;3.40;;
5791;SDS011;2922;53.482;10.006;2024-03-23T06:34:07;18.47;;;2.80;;
5791;SDS011;2922;53.482;10.006;2024-03-23T06:36:32;18.60;;;5.40;;
5791;SDS011;2922;53.482;10.006;2024-03-23T06:38:58;13.33;;;3.43;;
5791;SDS011;2922;53.482;10.006;2024-03-23T06:41:24;28.03;;;4.33;;
5791;SDS011;2922;53.482;10.006;2024-03-23T06:43:50;22.97;;;5.40;;
5791;SDS011;2922;53.482;10.006;2024-03-23T06:46:16;23.37;;;2.97;;
5791;SDS011;2922;53.482;10.006;2024-03-23T06:48:41;20.87;;;3.50;;
5791;SDS011;2922;53.482;10.006;2024-03-23T06:51:07;24.60;;;3.93;;
5791;SDS011;2922;53.482;10.006;2024-03-23T06:53:34;12.80;;;2.60;;
5791;SDS011;2922;53.482;10.006;2024-03-23T06:55:59;16.13;;;2.90;;
5791;SDS011;2922;53.482;10.006;2024-03-23T06:58:26;19.73;;;3.20;;
5791;SDS011;2922;53.482;10.006;2024-03-23T07:00:51;21.27;;;4.20;;
5791;SDS011;2922;53.482;10.006;2024-03-23T07:03:17;19.03;;;2.90;;
5791;SDS011;2922;53.482;10.006;2024-03-23T07:05:42;17.00;;;3.80;;
5791;SDS011;2922;53.482;10.006;2024-03-23T07:08:08;14.27;;;2.80;;
5791;SDS011;2922;53.482;10.006;2024-03-23T07:10:34;23.10;;;3.50;;
5791;SDS011;2922;53.482;10.006;2024-03-23T07:13:00;11.50;;;2.60;;
5791;SDS011;2922;53.482;10.006;2024-03-23T07:15:26;14.50;;;3.00;;
5791;SDS011;2922;53.482;10.006;2024-03-23T07:17:51;32.13;;;2.90;;
5791;SDS011;2922;53.482;10.006;2024-03-23T07:20:17;16.87;;;3.50;;
5791;SDS011;2922;53.482;10.006;2024-03-23T07:22:42;23.47;;;3.20;;
5791;SDS011;2922;53.482;10.006;2024-03-23T10:00:31;6.40;;;1.37;;
5791;SDS011;2922;53.482;10.006;2024-03-23T10:02:58;7.37;;;1.77;;
5791;SDS011;2922;53.482;10.006;2024-03-23T10:05:27;7.37;;;2.03;;
5791;SDS011;2922;53.482;10.006;2024-03-23T10:07:53;11.87;;;2.50;;
5791;SDS011;2922;53.482;10.006;2024-03-23T10:10:19;10.43;;;2.77;;
5791;SDS011;2922;53.482;10.006;2024-03-23T10:12:46;8.33;;;1.70;;
5791;SDS011;2922;53.482;10.006;2024-03-23T10:15:19;9.03;;;2.47;;
5791;SDS011;2922;53.482;10.006;2024-03-23T10:17:46;7.00;;;2.10;;
5791;SDS011;2922;53.482;10.006;2024-03-23T10:20:11;6.60;;;2.00;;
5791;SDS011;2922;53.482;10.006;2024-03-23T10:22:38;7.63;;;2.40;;
5791;SDS011;2922;53.482;10.006;2024-03-23T10:25:07;6.40;;;1.87;;
5791;SDS011;2922;53.482;10.006;2024-03-23T10:27:33;16.17;;;3.93;;
5791;SDS011;2922;53.482;10.006;2024-03-23T10:30:07;10.97;;;1.40;;
5791;SDS011;2922;53.482;10.006;2024-03-23T10:32:37;11.57;;;2.43;;
5791;SDS011;2922;53.482;10.006;2024-03-23T10:35:21;8.00;;;1.63;;
5791;SDS011;2922;53.482;10.006;2024-03-23T10:37:47;5.43;;;1.10;;
5791;SDS011;2922;53.482;10.006;2024-03-23T10:40:16;4.70;;;0.80;;
5791;SDS011;2922;53.482;10.006;2024-03-23T10:42:43;8.40;;;1.40;;
5791;SDS011;2922;53.482;10.006;2024-03-23T10:45:09;8.57;;;1.30;;
5791;SDS011;2922;53.482;10.006;2024-03-23T10:47:36;6.13;;;1.70;;
5791;SDS011;2922;53.482;10.006;2024-03-23T10:50:05;7.10;;;1.40;;
5791;SDS011;2922;53.482;10.006;2024-03-23T10:52:34;4.97;;;1.60;;
5791;SDS011;2922;53.482;10.006;2024-03-23T10:55:02;5.33;;;1.50;;
5791;SDS011;2922;53.482;10.006;2024-03-23T10:57:32;3.20;;;1.00;;
5791;SDS011;2922;53.482;10.006;2024-03-23T11:00:04;8.10;;;1.30;;
5791;SDS011;2922;53.482;10.006;2024-03-23T11:02:31;7.53;;;2.03;;
5791;SDS011;2922;53.482;10.006;2024-03-23T11:04:57;4.47;;;1.57;;
5791;SDS011;2922;53.482;10.006;2024-03-23T11:07:32;3.43;;;1.27;;
5791;SDS011;2922;53.482;10.006;2024-03-23T11:09:58;6.47;;;1.00;;
5791;SDS011;2922;53.482;10.006;2024-03-23T11:12:25;9.27;;;1.17;;
5791;SDS011;2922;53.482;10.006;2024-03-23T11:15:04;7.37;;;3.00;;
5791;SDS011;2922;53.482;10.006;2024-03-23T11:17:35;2.90;;;1.70;;
5791;SDS011;2922;53.482;10.006;2024-03-23T11:20:07;7.93;;;2.10;;
5791;SDS011;2922;53.482;10.006;2024-03-23T11:25:19;4.87;;;1.20;;
5791;SDS011;2922;53.482;10.006;2024-03-23T11:27:51;5.10;;;1.07;;
5791;SDS011;2922;53.482;10.006;2024-03-23T11:30:19;5.80;;;1.50;;
5791;SDS011;2922;53.482;10.006;2024-03-23T11:32:51;5.80;;;1.40;;
5791;SDS011;2922;53.482;10.006;2024-03-23T11:35:25;5.20;;;1.70;;
5791;SDS011;2922;53.482;10.006;2024-03-23T11:38:02;4.07;;;1.30;;
5791;SDS011;2922;53.482;10.006;2024-03-23T11:40:30;6.83;;;1.40;;
5791;SDS011;2922;53.482;10.006;2024-03-23T11:43:00;15.97;;;1.60;;
5791;SDS011;2922;53.482;10.006;2024-03-23T11:45:28;3.07;;;1.20;;
5791;SDS011;2922;53.482;10.006;2024-03-23T11:48:07;8.53;;;1.50;;
5791;SDS011;2922;53.482;10.006;2024-03-23T11:50:33;6.87;;;1.87;;
5791;SDS011;2922;53.482;10.006;2024-03-23T11:58:19;2.13;;;0.97;;
5791;SDS011;2922;53.482;10.006;2024-03-23T12:00:49;4.53;;;1.40;;
5791;SDS011;2922;53.482;10.006;2024-03-23T12:03:21;12.27;;;2.53;;
5791;SDS011;2922;53.482;10.006;2024-03-23T12:05:49;8.60;;;1.30;;
5791;SDS011;2922;53.482;10.006;2024-03-23T12:13:33;7.57;;;1.20;;
5791;SDS011;2922;53.482;10.006;2024-03-23T12:16:12;6.70;;;1.37;;
5791;SDS011;2922;53.482;10.006;2024-03-23T12:18:48;11.67;;;1.63;;
5791;SDS011;2922;53.482;10.006;2024-03-23T12:21:14;5.70;;;1.30;;
5791;SDS011;2922;53.482;10.006;2024-03-23T12:23:41;5.93;;;1.40;;
5791;SDS011;2922;53.482;10.006;2024-03-23T12:26:09;6.77;;;1.00;;
5791;SDS011;2922;53.482;10.006;2024-03-23T12:28:36;7.70;;;1.83;;
5791;SDS011;2922;53.482;10.006;2024-03-23T12:31:02;9.53;;;1.27;;
5791;SDS011;2922;53.482;10.006;2024-03-23T12:33:28;3.10;;;1.27;;
5791;SDS011;2922;53.482;10.006;2024-03-23T12:35:53;5.70;;;0.97;;
5791;SDS011;2922;53.482;10.006;2024-03-23T12:38:19;3.80;;;1.10;;
5791;SDS011;2922;53.482;10.006;2024-03-23T12:40:48;3.60;;;1.10;;
5791;SDS011;2922;53.482;10.006;2024-03-23T12:43:14;3.03;;;1.27;;
5791;SDS011;2922;53.482;10.006;2024-03-23T12:45:40;3.17;;;0.70;;
5791;SDS011;2922;53.482;10.006;2024-03-23T12:48:06;2.83;;;1.00;;
5791;SDS011;2922;53.482;10.006;2024-03-23T12:50:32;2.90;;;0.80;;
5791;SDS011;2922;53.482;10.006;2024-03-23T12:52:57;6.40;;;0.80;;
5791;SDS011;2922;53.482;10.006;2024-03-23T12:55:23;2.93;;;0.60;;
5791;SDS011;2922;53.482;10.006;2024-03-23T12:57:49;2.13;;;0.70;;
5791;SDS011;2922;53.482;10.006;2024-03-23T13:00:14;5.17;;;1.73;;
5791;SDS011;2922;53.482;10.006;2024-03-23T13:02:43;3.37;;;0.93;;
5791;SDS011;2922;53.482;10.006;2024-03-23T13:05:09;2.70;;;0.80;;
5791;SDS011;2922;53.482;10.006;2024-03-23T13:07:35;2.90;;;0.80;;
5791;SDS011;2922;53.482;10.006;2024-03-23T13:10:02;4.40;;;1.53;;
5791;SDS011;2922;53.482;10.006;2024-03-23T13:12:28;2.13;;;0.90;;
5791;SDS011;2922;53.482;10.006;2024-03-23T13:14:54;2.80;;;0.93;;
5791;SDS011;2922;53.482;10.006;2024-03-23T13:17:19;4.90;;;0.93;;
5791;SDS011;2922;53.482;10.006;2024-03-23T13:19:45;4.83;;;1.83;;
5791;SDS011;2922;53.482;10.006;2024-03-23T13:22:11;7.67;;;1.80;;
5791;SDS011;2922;53.482;10.006;2024-03-23T13:24:37;2.37;;;1.10;;
5791;SDS011;2922;53.482;10.006;2024-03-23T13:27:03;5.13;;;1.27;;
5791;SDS011;2922;53.482;10.006;2024-03-23T13:29:32;0.97;;;0.77;;
5791;SDS011;2922;53.482;10.006;2024-03-23T13:31:59;1.83;;;0.73;;
5791;SDS011;2922;53.482;10.006;2024-03-23T13:34:25;3.17;;;1.03;;
5791;SDS011;2922;53.482;10.006;2024-03-23T13:36:50;8.13;;;1.53;;
5791;SDS011;2922;53.482;10.006;2024-03-23T13:39:16;2.90;;;1.10;;
5791;SDS011;2922;53.482;10.006;2024-03-23T13:41:45;2.93;;;1.00;;
5791;SDS011;2922;53.482;10.006;2024-03-23T13:44:11;4.37;;;1.43;;
5791;SDS011;2922;53.482;10.006;2024-03-23T13:46:38;3.00;;;1.00;;
5791;SDS011;2922;53.482;10.006;2024-03-23T13:49:04;3.30;;;1.67;;
5791;SDS011;2922;53.482;10.006;2024-03-23T13:51:31;4.20;;;0.80;;
5791;SDS011;2922;53.482;10.006;2024-03-23T13:53:56;2.90;;;0.73;;
5791;SDS011;2922;53.482;10.006;2024-03-23T13:56:25;4.50;;;1.10;;
5791;SDS011;2922;53.482;10.006;2024-03-23T13:58:51;1.63;;;0.90;;
5791;SDS011;2922;53.482;10.006;2024-03-23T14:01:17;2.33;;;1.37;;
5791;SDS011;2922;53.482;10.006;2024-03-23T14:03:42;3.53;;;1.10;;
5791;SDS011;2922;53.482;10.006;2024-03-23T14:06:08;2.93;;;0.93;;
5791;SDS011;2922;53.482;10.006;2024-03-23T14:08:35;5.20;;;1.13;;
5791;SDS011;2922;53.482;10.006;2024-03-23T14:11:04;2.00;;;0.80;;
5791;SDS011;2922;53.482;10.006;2024-03-23T14:13:30;1.80;;;0.90;;
5791;SDS011;2922;53.482;10.006;2024-03-23T14:15:56;1.90;;;0.70;;
5791;SDS011;2922;53.482;10.006;2024-03-23T14:18:22;3.03;;;0.93;;
5791;SDS011;2922;53.482;10.006;2024-03-23T14:20:48;3.47;;;0.90;;
5791;SDS011;2922;53.482;10.006;2024-03-23T14:23:14;1.40;;;0.60;;
5791;SDS011;2922;53.482;10.006;2024-03-23T14:25:40;5.50;;;0.73;;
5791;SDS011;2922;53.482;10.006;2024-03-23T14:28:06;4.83;;;1.87;;
5791;SDS011;2922;53.482;10.006;2024-03-23T14:30:33;3.43;;;0.73;;
5791;SDS011;2922;53.482;10.006;2024-03-23T14:32:59;2.50;;;0.87;;
5791;SDS011;2922;53.482;10.006;2024-03-23T14:35:24;3.27;;;0.90;;
5791;SDS011;2922;53.482;10.006;2024-03-23T14:37:51;1.80;;;1.00;;
5791;SDS011;2922;53.482;10.006;2024-03-23T14:40:18;5.00;;;1.00;;
5791;SDS011;2922;53.482;10.006;2024-03-23T14:42:43;5.00;;;0.90;;
5791;SDS011;2922;53.482;10.006;2024-03-23T14:45:09;4.33;;;0.90;;
5791;SDS011;2922;53.482;10.006;2024-03-23T14:47:36;1.73;;;0.80;;
5791;SDS011;2922;53.482;10.006;2024-03-23T14:50:02;8.03;;;1.50;;
5791;SDS011;2922;53.482;10.006;2024-03-23T14:52:28;2.40;;;1.17;;
5791;SDS011;2922;53.482;10.006;2024-03-23T14:54:54;7.60;;;1.67;;
5791;SDS011;2922;53.482;10.006;2024-03-23T14:57:22;1.97;;;0.80;;
5791;SDS011;2922;53.482;10.006;2024-03-23T14:59:47;9.57;;;1.60;;
5791;SDS011;2922;53.482;10.006;2024-03-23T15:02:13;4.63;;;1.20;;
5791;SDS011;2922;53.482;10.006;2024-03-23T15:04:38;4.73;;;1.20;;
5791;SDS011;2922;53.482;10.006;2024-03-23T15:07:06;3.60;;;0.80;;
5791;SDS011;2922;53.482;10.006;2024-03-23T15:09:32;3.23;;;0.90;;
5791;SDS011;2922;53.482;10.006;2024-03-23T15:11:58;5.17;;;1.40;;
5791;SDS011;2922;53.482;10.006;2024-03-23T15:14:24;6.50;;;1.20;;
5791;SDS011;2922;53.482;10.006;2024-03-23T15:16:50;3.53;;;1.47;;
5791;SDS011;2922;53.482;10.006;2024-03-23T15:19:17;3.37;;;0.97;;
5791;SDS011;2922;53.482;10.006;2024-03-23T15:21:43;3.13;;;0.77;;
5791;SDS011;2922;53.482;10.006;2024-03-23T15:24:09;1.57;;;0.73;;
5791;SDS011;2922;53.482;10.006;2024-03-23T15:26:36;2.60;;;0.70;;
5791;SDS011;2922;53.482;10.006;2024-03-23T15:29:05;2.23;;;0.87;;
5791;SDS011;2922;53.482;10.006;2024-03-23T15:31:42;1.10;;;0.90;;
5791;SDS011;2922;53.482;10.006;2024-03-23T15:34:07;4.50;;;2.07;;
5791;SDS011;2922;53.482;10.006;2024-03-23T15:36:35;4.67;;;0.90;;
5791;SDS011;2922;53.482;10.006;2024-03-23T15:39:03;6.10;;;1.10;;
5791;SDS011;2922;53.482;10.006;2024-03-23T15:41:29;1.87;;;0.70;;
5791;SDS011;2922;53.482;10.006;2024-03-23T15:43:55;2.10;;;1.13;;
5791;SDS011;2922;53.482;10.006;2024-03-23T15:46:21;2.40;;;1.13;;
5791;SDS011;2922;53.482;10.006;2024-03-23T15:48:47;3.07;;;1.07;;
5791;SDS011;2922;53.482;10.006;2024-03-23T15:51:13;2.67;;;1.20;;
5791;SDS011;2922;53.482;10.006;2024-03-23T15:53:39;5.57;;;1.07;;
5791;SDS011;2922;53.482;10.006;2024-03-23T15:56:05;2.37;;;1.10;;
5791;SDS011;2922;53.482;10.006;2024-03-23T15:58:31;2.90;;;0.90;;
5791;SDS011;2922;53.482;10.006;2024-03-23T16:03:24;3.53;;;1.33;;
5791;SDS011;2922;53.482;10.006;2024-03-23T16:05:58;5.20;;;1.30;;
5791;SDS011;2922;53.482;10.006;2024-03-23T16:08:25;7.30;;;1.70;;
5791;SDS011;2922;53.482;10.006;2024-03-23T16:10:51;4.70;;;1.20;;
5791;SDS011;2922;53.482;10.006;2024-03-23T16:15:45;5.50;;;1.77;;
5791;SDS011;2922;53.482;10.006;2024-03-23T16:18:20;9.10;;;1.93;;
5791;SDS011;2922;53.482;10.006;2024-03-23T16:23:18;1.90;;;1.03;;
5791;SDS011;2922;53.482;10.006;2024-03-23T16:25:47;2.07;;;1.03;;
5791;SDS011;2922;53.482;10.006;2024-03-23T16:30:56;1.90;;;0.73;;
5791;SDS011;2922;53.482;10.006;2024-03-23T16:33:23;3.23;;;0.90;;
5791;SDS011;2922;53.482;10.006;2024-03-23T16:35:56;1.53;;;0.60;;
5791;SDS011;2922;53.482;10.006;2024-03-23T16:38:31;0.90;;;0.70;;
5791;SDS011;2922;53.482;10.006;2024-03-23T16:41:10;2.03;;;0.80;;
5791;SDS011;2922;53.482;10.006;2024-03-23T16:43:42;1.30;;;0.70;;
5791;SDS011;2922;53.482;10.006;2024-03-23T16:46:09;2.90;;;1.13;;
5791;SDS011;2922;53.482;10.006;2024-03-23T16:48:36;3.80;;;0.70;;
5791;SDS011;2922;53.482;10.006;2024-03-23T16:51:03;3.50;;;1.73;;
5791;SDS011;2922;53.482;10.006;2024-03-23T16:53:29;2.17;;;0.67;;
5791;SDS011;2922;53.482;10.006;2024-03-23T16:55:56;4.37;;;1.33;;
5791;SDS011;2922;53.482;10.006;2024-03-23T16:58:25;2.80;;;1.10;;
5791;SDS011;2922;53.482;10.006;2024-03-23T17:00:51;2.80;;;1.17;;
5791;SDS011;2922;53.482;10.006;2024-03-23T17:03:18;2.60;;;1.00;;
5791;SDS011;2922;53.482;10.006;2024-03-23T17:05:45;8.63;;;2.43;;
5791;SDS011;2922;53.482;10.006;2024-03-23T17:08:11;8.20;;;1.40;;
5791;SDS011;2922;53.482;10.006;2024-03-23T17:10:38;2.17;;;0.90;;
5791;SDS011;2922;53.482;10.006;2024-03-23T17:13:06;2.30;;;0.80;;
5791;SDS011;2922;53.482;10.006;2024-03-23T17:15:32;5.23;;;1.40;;
5791;SDS011;2922;53.482;10.006;2024-03-23T17:17:58;2.53;;;1.27;;
5791;SDS011;2922;53.482;10.006;2024-03-23T17:20:23;2.37;;;1.10;;
5791;SDS011;2922;53.482;10.006;2024-03-23T17:22:53;2.97;;;0.90;;
5791;SDS011;2922;53.482;10.006;2024-03-23T17:25:19;1.97;;;0.90;;
5791;SDS011;2922;53.482;10.006;2024-03-23T17:27:44;2.20;;;0.90;;
5791;SDS011;2922;53.482;10.006;2024-03-23T17:30:10;1.30;;;0.90;;
5791;SDS011;2922;53.482;10.006;2024-03-23T17:32:36;2.97;;;1.27;;
5791;SDS011;2922;53.482;10.006;2024-03-23T17:35:03;7.00;;;1.00;;
5791;SDS011;2922;53.482;10.006;2024-03-23T17:37:30;1.50;;;1.00;;
5791;SDS011;2922;53.482;10.006;2024-03-23T17:39:55;4.60;;;1.30;;
5791;SDS011;2922;53.482;10.006;2024-03-23T17:42:21;5.37;;;1.27;;
5791;SDS011;2922;53.482;10.006;2024-03-23T17:44:46;3.60;;;1.10;;
5791;SDS011;2922;53.482;10.006;2024-03-23T17:47:12;1.80;;;1.20;;
5791;SDS011;2922;53.482;10.006;2024-03-23T17:49:37;3.90;;;1.00;;
5791;SDS011;2922;53.482;10.006;2024-03-23T17:52:07;5.73;;;0.97;;
5791;SDS011;2922;53.482;10.006;2024-03-23T17:54:36;2.50;;;1.10;;
5791;SDS011;2922;53.482;10.006;2024-03-23T17:57:02;4.00;;;0.93;;
5791;SDS011;2922;53.482;10.006;2024-03-23T17:59:28;7.10;;;1.53;;
5791;SDS011;2922;53.482;10.006;2024-03-23T18:01:53;3.70;;;1.30;;
5791;SDS011;2922;53.482;10.006;2024-03-23T18:04:19;3.90;;;1.17;;
5791;SDS011;2922;53.482;10.006;2024-03-23T18:06:44;7.63;;;1.17;;
5791;SDS011;2922;53.482;10.006;2024-03-23T18:09:12;5.07;;;1.87;;
5791;SDS011;2922;53.482;10.006;2024-03-23T18:11:41;3.33;;;1.43;;
5791;SDS011;2922;53.482;10.006;2024-03-23T18:14:07;9.93;;;2.00;;
5791;SDS011;2922;53.482;10.006;2024-03-23T18:16:32;1.60;;;1.30;;
5791;SDS011;2922;53.482;10.006;2024-03-23T18:18:58;5.10;;;1.80;;
5791;SDS011;2922;53.482;10.006;2024-03-23T18:21:23;11.90;;;1.80;;
5791;SDS011;2922;53.482;10.006;2024-03-23T18:23:49;6.13;;;1.80;;
5791;SDS011;2922;53.482;10.006;2024-03-23T18:26:15;6.63;;;2.10;;
5791;SDS011;2922;53.482;10.006;2024-03-23T18:28:40;3.83;;;1.97;;
5791;SDS011;2922;53.482;10.006;2024-03-23T18:31:06;6.33;;;2.10;;
5791;SDS011;2922;53.482;10.006;2024-03-23T18:33:32;6.80;;;2.50;;
5791;SDS011;2922;53.482;10.006;2024-03-23T18:36:01;6.33;;;3.33;;
5791;SDS011;2922;53.482;10.006;2024-03-23T18:38:27;5.80;;;1.40;;
5791;SDS011;2922;53.482;10.006;2024-03-23T18:40:52;10.23;;;1.90;;
5791;SDS011;2922;53.482;10.006;2024-03-23T18:43:18;3.63;;;1.50;;